PWSweather.com
Personal Weather Stations
Station Observations
KMAMEDFI2
Medfield, MA 02052

Medfield, MA 02052

Lat: 42.1900822, Lon: -71.3296889

Elevation: 138

Station Type: Rainwise WS MK-III

http://www.medfieldweather.com

High Low Average
Temperature 16.9°F-8.4°C -9.6°F-23.1°C 4.3°F-15.4°C
Dew Point 13.4°F-10.3°C -13.0°F-25.0°C -4.2°F-20.1°C
Winds 10.4 mph 16.7 kmh Calm Calm 3.0 mph WSW4.8 kmh WSW
Wind Gusts 13.8 mph22.2 kmh -- 3.0 mph4.8 kmh
Humidity 93% 40% 70%
Pressure 31.49 in1066.4 mb 30.43 in1030.5 mb -
Precipitation 0.00 in0.0 mm - -
Hour Temp Dew Point Humidity Winds Wind Gusts Pressure Precip Precip Rate Daily Precip Total
12:00 AM 0.9°F-17.3°C -3.8°F-19.9°C 80% 3.5 mph SW5.6 kmh SW 2.3 mph3.7 kmh 31.21 in1056.9 mb - 0.00 in0.0 mm 0.00 in0.0 mm
12:10 AM 0.9°F-17.3°C -3.8°F-19.9°C 80% 3.5 mph SW5.6 kmh SW 2.3 mph3.7 kmh 31.21 in1056.9 mb - 0.00 in0.0 mm 0.00 in0.0 mm
12:20 AM 0.9°F-17.3°C -3.8°F-19.9°C 80% 3.5 mph SW5.6 kmh SW 2.3 mph3.7 kmh 31.21 in1056.9 mb - 0.00 in0.0 mm 0.00 in0.0 mm
12:30 AM 0.9°F-17.3°C -3.8°F-19.9°C 80% 3.5 mph SW5.6 kmh SW 2.3 mph3.7 kmh 31.21 in1056.9 mb - 0.00 in0.0 mm 0.00 in0.0 mm
12:40 AM -1.7°F-18.7°C -7.4°F-21.9°C 76% 4.6 mph NW7.4 kmh NW 5.8 mph9.3 kmh 31.26 in1058.6 mb - 0.00 in0.0 mm 0.00 in0.0 mm
12:50 AM -1.9°F-18.8°C -7.9°F-22.2°C 75% 6.9 mph W11.1 kmh W 13.8 mph22.2 kmh 31.27 in1058.9 mb - 0.00 in0.0 mm 0.00 in0.0 mm
01:00 AM -2.1°F-18.9°C -7.8°F-22.1°C 76% 10.4 mph W16.7 kmh W 11.5 mph18.5 kmh 31.28 in1059.3 mb - 0.00 in0.0 mm 0.00 in0.0 mm
01:10 AM -2.4°F-19.1°C -8.1°F-22.3°C 76% 4.6 mph W7.4 kmh W 3.5 mph5.6 kmh 31.29 in1059.6 mb - 0.00 in0.0 mm 0.00 in0.0 mm
01:20 AM -2.6°F-19.2°C -8.1°F-22.3°C 77% 4.6 mph WSW7.4 kmh WSW 3.5 mph5.6 kmh 31.29 in1059.6 mb - 0.00 in0.0 mm 0.00 in0.0 mm
01:30 AM -2.9°F-19.4°C -8.3°F-22.4°C 77% 3.5 mph S5.6 kmh S 3.5 mph5.6 kmh 31.30 in1059.9 mb - 0.00 in0.0 mm 0.00 in0.0 mm
01:40 AM -3.1°F-19.5°C -8.5°F-22.5°C 77% 3.5 mph SW5.6 kmh SW 9.2 mph14.8 kmh 31.31 in1060.3 mb - 0.00 in0.0 mm 0.00 in0.0 mm
01:50 AM -3.2°F-19.6°C -8.4°F-22.4°C 78% 3.5 mph WSW5.6 kmh WSW 2.3 mph3.7 kmh 31.31 in1060.3 mb - 0.00 in0.0 mm 0.00 in0.0 mm
02:00 AM -3.3°F-19.6°C -8.4°F-22.4°C 78% 5.8 mph WSW9.3 kmh WSW 5.8 mph9.3 kmh 31.32 in1060.6 mb - 0.00 in0.0 mm 0.00 in0.0 mm
02:10 AM -3.5°F-19.7°C -8.6°F-22.6°C 78% 2.3 mph N3.7 kmh N 1.2 mph1.9 kmh 31.32 in1060.6 mb - 0.00 in0.0 mm 0.00 in0.0 mm
02:20 AM -3.7°F-19.8°C -8.6°F-22.6°C 79% 3.5 mph W5.6 kmh W 2.3 mph3.7 kmh 31.33 in1061.0 mb - 0.00 in0.0 mm 0.00 in0.0 mm
02:30 AM -3.8°F-19.9°C -8.7°F-22.6°C 79% 2.3 mph W3.7 kmh W 3.5 mph5.6 kmh 31.34 in1061.3 mb - 0.00 in0.0 mm 0.00 in0.0 mm
02:40 AM -3.9°F-19.9°C -8.5°F-22.5°C 80% 3.5 mph SSE5.6 kmh SSE 2.3 mph3.7 kmh 31.34 in1061.3 mb - 0.00 in0.0 mm 0.00 in0.0 mm
02:50 AM -4.2°F-20.1°C -8.6°F-22.6°C 81% 3.5 mph SW5.6 kmh SW 3.5 mph5.6 kmh 31.35 in1061.6 mb - 0.00 in0.0 mm 0.00 in0.0 mm
03:00 AM -4.5°F-20.3°C -8.6°F-22.6°C 82% 3.5 mph WNW5.6 kmh WNW 2.3 mph3.7 kmh 31.35 in1061.6 mb - 0.00 in0.0 mm 0.00 in0.0 mm
03:10 AM -4.9°F-20.5°C -8.5°F-22.5°C 84% 4.6 mph W7.4 kmh W 5.8 mph9.3 kmh 31.36 in1062.0 mb - 0.00 in0.0 mm 0.00 in0.0 mm
03:20 AM -4.9°F-20.5°C -8.5°F-22.5°C 84% 3.5 mph W5.6 kmh W 5.8 mph9.3 kmh 31.36 in1062.0 mb - 0.00 in0.0 mm 0.00 in0.0 mm
03:30 AM -5.0°F-20.6°C -8.6°F-22.6°C 84% 5.8 mph NNW9.3 kmh NNW 5.8 mph9.3 kmh 31.36 in1062.0 mb - 0.00 in0.0 mm 0.00 in0.0 mm
03:40 AM -5.1°F-20.6°C -8.7°F-22.6°C 84% 6.9 mph WNW11.1 kmh WNW 5.8 mph9.3 kmh 31.37 in1062.3 mb - 0.00 in0.0 mm 0.00 in0.0 mm
03:50 AM -5.1°F-20.6°C -8.7°F-22.6°C 84% 4.6 mph W7.4 kmh W 5.8 mph9.3 kmh 31.37 in1062.3 mb - 0.00 in0.0 mm 0.00 in0.0 mm
04:00 AM -5.2°F-20.7°C -8.8°F-22.7°C 84% 3.5 mph WSW5.6 kmh WSW 2.3 mph3.7 kmh 31.37 in1062.3 mb - 0.00 in0.0 mm 0.00 in0.0 mm
04:10 AM -5.5°F-20.8°C -8.8°F-22.7°C 85% 1.2 mph WSW1.9 kmh WSW 2.3 mph3.7 kmh 31.38 in1062.6 mb - 0.00 in0.0 mm 0.00 in0.0 mm
04:20 AM -5.6°F-20.9°C -8.7°F-22.6°C 86% 3.5 mph WSW5.6 kmh WSW 2.3 mph3.7 kmh 31.39 in1063.0 mb - 0.00 in0.0 mm 0.00 in0.0 mm
04:30 AM -5.8°F-21.0°C -9.1°F-22.8°C 85% 3.5 mph W5.6 kmh W 2.3 mph3.7 kmh 31.40 in1063.3 mb - 0.00 in0.0 mm 0.00 in0.0 mm
04:40 AM -6.1°F-21.2°C -9.0°F-22.8°C 87% 3.5 mph WSW5.6 kmh WSW 2.3 mph3.7 kmh 31.41 in1063.7 mb - 0.00 in0.0 mm 0.00 in0.0 mm
04:50 AM -6.1°F-21.2°C -9.0°F-22.8°C 87% 1.2 mph WNW1.9 kmh WNW 1.2 mph1.9 kmh 31.41 in1063.7 mb - 0.00 in0.0 mm 0.00 in0.0 mm
05:00 AM -6.4°F-21.3°C -9.0°F-22.8°C 88% Calm Calm -- 31.42 in1064.0 mb - 0.00 in0.0 mm 0.00 in0.0 mm
05:10 AM -6.6°F-21.4°C -9.0°F-22.8°C 89% 1.2 mph SW1.9 kmh SW 2.3 mph3.7 kmh 31.42 in1064.0 mb - 0.00 in0.0 mm 0.00 in0.0 mm
05:20 AM -6.8°F-21.6°C -9.0°F-22.8°C 90% 1.2 mph NW1.9 kmh NW 1.2 mph1.9 kmh 31.42 in1064.0 mb - 0.00 in0.0 mm 0.00 in0.0 mm
05:30 AM -6.8°F-21.6°C -9.0°F-22.8°C 90% 2.3 mph WSW3.7 kmh WSW 3.5 mph5.6 kmh 31.43 in1064.3 mb - 0.00 in0.0 mm 0.00 in0.0 mm
05:40 AM -6.8°F-21.6°C -9.0°F-22.8°C 90% 2.3 mph W3.7 kmh W 2.3 mph3.7 kmh 31.44 in1064.7 mb - 0.00 in0.0 mm 0.00 in0.0 mm
05:50 AM -7.1°F-21.7°C -9.0°F-22.8°C 91% 2.3 mph NW3.7 kmh NW 2.3 mph3.7 kmh 31.44 in1064.7 mb - 0.00 in0.0 mm 0.00 in0.0 mm
06:00 AM -6.8°F-21.6°C -8.8°F-22.7°C 91% 2.3 mph SW3.7 kmh SW 2.3 mph3.7 kmh 31.45 in1065.0 mb - 0.00 in0.0 mm 0.00 in0.0 mm
06:10 AM -6.7°F-21.5°C -9.1°F-22.8°C 89% 1.2 mph WSW1.9 kmh WSW 1.2 mph1.9 kmh 31.46 in1065.4 mb - 0.00 in0.0 mm 0.00 in0.0 mm
06:20 AM -7.2°F-21.8°C -9.1°F-22.8°C 91% Calm Calm 1.2 mph1.9 kmh 31.46 in1065.4 mb - 0.00 in0.0 mm 0.00 in0.0 mm
06:30 AM -6.9°F-21.6°C -8.8°F-22.7°C 91% Calm Calm 1.2 mph1.9 kmh 31.47 in1065.7 mb - 0.00 in0.0 mm 0.00 in0.0 mm
06:40 AM -7.2°F-21.8°C -9.1°F-22.8°C 91% 1.2 mph WNW1.9 kmh WNW 1.2 mph1.9 kmh 31.48 in1066.0 mb - 0.00 in0.0 mm 0.00 in0.0 mm
06:50 AM -7.3°F-21.8°C -9.2°F-22.9°C 91% 1.2 mph NW1.9 kmh NW 1.2 mph1.9 kmh 31.48 in1066.0 mb - 0.00 in0.0 mm 0.00 in0.0 mm
07:00 AM -7.2°F-21.8°C -9.1°F-22.8°C 91% Calm Calm -- 31.49 in1066.4 mb - 0.00 in0.0 mm 0.00 in0.0 mm
07:10 AM -8.2°F-22.3°C -9.9°F-23.3°C 92% Calm Calm -- 31.49 in1066.4 mb - 0.00 in0.0 mm 0.00 in0.0 mm
07:20 AM -9.3°F-22.9°C -11.0°F-23.9°C 92% Calm Calm -- 31.48 in1066.0 mb - 0.00 in0.0 mm 0.00 in0.0 mm
07:30 AM -9.6°F-23.1°C -11.3°F-24.1°C 92% 1.2 mph W1.9 kmh W 1.2 mph1.9 kmh 31.48 in1066.0 mb - 0.00 in0.0 mm 0.00 in0.0 mm
07:40 AM -9.1°F-22.8°C -10.8°F-23.8°C 92% 2.3 mph N3.7 kmh N 2.3 mph3.7 kmh 31.48 in1066.0 mb - 0.00 in0.0 mm 0.00 in0.0 mm
07:50 AM -8.5°F-22.5°C -10.2°F-23.4°C 92% 1.2 mph SW1.9 kmh SW 1.2 mph1.9 kmh 31.47 in1065.7 mb - 0.00 in0.0 mm 0.00 in0.0 mm
08:00 AM -7.9°F-22.2°C -9.6°F-23.1°C 92% 2.3 mph W3.7 kmh W 2.3 mph3.7 kmh 31.47 in1065.7 mb - 0.00 in0.0 mm 0.00 in0.0 mm
08:10 AM -6.7°F-21.5°C -8.7°F-22.6°C 91% 3.5 mph WSW5.6 kmh WSW 2.3 mph3.7 kmh 31.45 in1065.0 mb - 0.00 in0.0 mm 0.00 in0.0 mm
08:20 AM -6.2°F-21.2°C -8.6°F-22.6°C 89% Calm Calm -- 31.46 in1065.4 mb - 0.00 in0.0 mm 0.00 in0.0 mm
08:30 AM -5.2°F-20.7°C -8.1°F-22.3°C 87% 1.2 mph W1.9 kmh W 1.2 mph1.9 kmh 31.43 in1064.3 mb - 0.00 in0.0 mm 0.00 in0.0 mm
08:40 AM -4.1°F-20.1°C -12.9°F-24.9°C 65% 2.3 mph W3.7 kmh W 1.2 mph1.9 kmh 30.82 in1043.7 mb - 0.00 in0.0 mm 0.00 in0.0 mm
08:50 AM -2.8°F-19.3°C -8.5°F-22.5°C 76% Calm Calm -- 31.30 in1059.9 mb - 0.00 in0.0 mm 0.00 in0.0 mm
09:00 AM -1.8°F-18.8°C -12.0°F-24.4°C 61% 1.2 mph WSW1.9 kmh WSW 2.3 mph3.7 kmh 31.18 in1055.9 mb - 0.00 in0.0 mm 0.00 in0.0 mm
09:10 AM -1.1°F-18.4°C -13.0°F-25.0°C 56% 5.8 mph W9.3 kmh W 5.8 mph9.3 kmh 30.63 in1037.3 mb - 0.00 in0.0 mm 0.00 in0.0 mm
09:20 AM -0.4°F-18.0°C -12.8°F-24.9°C 55% 3.5 mph WNW5.6 kmh WNW 2.3 mph3.7 kmh 30.56 in1034.9 mb - 0.00 in0.0 mm 0.00 in0.0 mm
09:30 AM 0.0°F-17.8°C -9.6°F-23.1°C 63% 8.1 mph WNW13.0 kmh WNW 8.1 mph13.0 kmh 30.97 in1048.8 mb - 0.00 in0.0 mm 0.00 in0.0 mm
09:40 AM 0.4°F-17.6°C -9.3°F-22.9°C 63% 3.5 mph WNW5.6 kmh WNW 2.3 mph3.7 kmh 30.99 in1049.4 mb - 0.00 in0.0 mm 0.00 in0.0 mm
09:50 AM 1.0°F-17.2°C -12.2°F-24.6°C 53% 3.5 mph WSW5.6 kmh WSW 2.3 mph3.7 kmh 30.75 in1041.3 mb - 0.00 in0.0 mm 0.00 in0.0 mm
10:00 AM 2.2°F-16.6°C -11.5°F-24.2°C 52% 3.5 mph WSW5.6 kmh WSW 2.3 mph3.7 kmh 30.52 in1033.5 mb - 0.00 in0.0 mm 0.00 in0.0 mm
10:10 AM 2.3°F-16.5°C -9.8°F-23.2°C 56% Calm Calm 1.2 mph1.9 kmh 30.77 in1042.0 mb - 0.00 in0.0 mm 0.00 in0.0 mm
10:20 AM 3.3°F-15.9°C -11.6°F-24.2°C 49% 4.6 mph WSW7.4 kmh WSW 3.5 mph5.6 kmh 30.45 in1031.2 mb - 0.00 in0.0 mm 0.00 in0.0 mm
10:30 AM 4.9°F-15.1°C -10.6°F-23.7°C 48% 6.9 mph W11.1 kmh W 6.9 mph11.1 kmh 30.45 in1031.2 mb - 0.00 in0.0 mm 0.00 in0.0 mm
10:40 AM 5.6°F-14.7°C -10.7°F-23.7°C 46% 6.9 mph SW11.1 kmh SW 8.1 mph13.0 kmh 30.44 in1030.8 mb - 0.00 in0.0 mm 0.00 in0.0 mm
10:50 AM 6.4°F-14.2°C -10.5°F-23.6°C 45% 3.5 mph W5.6 kmh W 2.3 mph3.7 kmh 30.43 in1030.5 mb - 0.00 in0.0 mm 0.00 in0.0 mm
11:00 AM 7.6°F-13.6°C -9.8°F-23.2°C 44% 2.3 mph WNW3.7 kmh WNW 5.8 mph9.3 kmh 30.43 in1030.5 mb - 0.00 in0.0 mm 0.00 in0.0 mm
11:10 AM 7.6°F-13.6°C -10.3°F-23.5°C 43% 2.3 mph NW3.7 kmh NW 1.2 mph1.9 kmh 30.45 in1031.2 mb - 0.00 in0.0 mm 0.00 in0.0 mm
11:20 AM 8.6°F-13.0°C -8.4°F-22.4°C 45% 10.4 mph WSW16.7 kmh WSW 10.4 mph16.7 kmh 30.65 in1037.9 mb - 0.00 in0.0 mm 0.00 in0.0 mm
11:30 AM 9.2°F-12.7°C -7.4°F-21.9°C 46% 3.5 mph SSW5.6 kmh SSW 2.3 mph3.7 kmh 30.71 in1040.0 mb - 0.00 in0.0 mm 0.00 in0.0 mm
11:40 AM 9.7°F-12.4°C -9.3°F-22.9°C 41% 3.5 mph WSW5.6 kmh WSW 5.8 mph9.3 kmh 30.47 in1031.8 mb - 0.00 in0.0 mm 0.00 in0.0 mm
11:50 AM 10.6°F-11.9°C -8.5°F-22.5°C 41% 3.5 mph WSW5.6 kmh WSW 8.1 mph13.0 kmh 30.47 in1031.8 mb - 0.00 in0.0 mm 0.00 in0.0 mm
12:00 PM 10.8°F-11.8°C -8.8°F-22.7°C 40% 2.3 mph WSW3.7 kmh WSW 2.3 mph3.7 kmh 30.47 in1031.8 mb - 0.00 in0.0 mm 0.00 in0.0 mm
12:10 PM 11.2°F-11.6°C -8.0°F-22.2°C 41% 3.5 mph SW5.6 kmh SW 3.5 mph5.6 kmh 30.47 in1031.8 mb - 0.00 in0.0 mm 0.00 in0.0 mm
12:20 PM 11.7°F-11.3°C -8.0°F-22.2°C 40% 5.8 mph SW9.3 kmh SW 5.8 mph9.3 kmh 30.48 in1032.2 mb - 0.00 in0.0 mm 0.00 in0.0 mm
12:30 PM 12.4°F-10.9°C -7.3°F-21.8°C 40% 6.9 mph W11.1 kmh W 5.8 mph9.3 kmh 30.52 in1033.5 mb - 0.00 in0.0 mm 0.00 in0.0 mm
12:40 PM 12.3°F-10.9°C -7.0°F-21.7°C 41% 6.9 mph WSW11.1 kmh WSW 6.9 mph11.1 kmh 30.56 in1034.9 mb - 0.00 in0.0 mm 0.00 in0.0 mm
12:50 PM 12.4°F-10.9°C -5.9°F-21.1°C 43% 3.5 mph WSW5.6 kmh WSW 2.3 mph3.7 kmh 30.64 in1037.6 mb - 0.00 in0.0 mm 0.00 in0.0 mm
01:00 PM 13.0°F-10.6°C -5.9°F-21.1°C 42% 3.5 mph W5.6 kmh W 5.8 mph9.3 kmh 30.71 in1040.0 mb - 0.00 in0.0 mm 0.00 in0.0 mm
01:10 PM 13.6°F-10.2°C -4.8°F-20.4°C 43% 1.2 mph WSW1.9 kmh WSW 1.2 mph1.9 kmh 30.72 in1040.3 mb - 0.00 in0.0 mm 0.00 in0.0 mm
01:20 PM 13.7°F-10.2°C -5.2°F-20.7°C 42% 3.5 mph W5.6 kmh W 1.2 mph1.9 kmh 30.73 in1040.6 mb - 0.00 in0.0 mm 0.00 in0.0 mm
01:30 PM 13.8°F-10.1°C -5.1°F-20.6°C 42% 3.5 mph W5.6 kmh W 2.3 mph3.7 kmh 30.74 in1041.0 mb - 0.00 in0.0 mm 0.00 in0.0 mm
01:40 PM 14.0°F-10.0°C -4.9°F-20.5°C 42% 3.5 mph SE5.6 kmh SE 2.3 mph3.7 kmh 30.75 in1041.3 mb - 0.00 in0.0 mm 0.00 in0.0 mm
01:50 PM 13.5°F-10.3°C -4.9°F-20.5°C 43% 8.1 mph W13.0 kmh W 5.8 mph9.3 kmh 30.75 in1041.3 mb - 0.00 in0.0 mm 0.00 in0.0 mm
02:00 PM 13.6°F-10.2°C -5.3°F-20.7°C 42% 1.2 mph S1.9 kmh S 1.2 mph1.9 kmh 30.75 in1041.3 mb - 0.00 in0.0 mm 0.00 in0.0 mm
02:10 PM 13.8°F-10.1°C -3.7°F-19.8°C 45% 2.3 mph W3.7 kmh W 2.3 mph3.7 kmh 30.85 in1044.7 mb - 0.00 in0.0 mm 0.00 in0.0 mm
02:20 PM 13.6°F-10.2°C -2.9°F-19.4°C 47% 2.3 mph WNW3.7 kmh WNW 3.5 mph5.6 kmh 30.90 in1046.4 mb - 0.00 in0.0 mm 0.00 in0.0 mm
02:30 PM 12.8°F-10.7°C -4.6°F-20.3°C 45% 3.5 mph W5.6 kmh W 2.3 mph3.7 kmh 30.92 in1047.1 mb - 0.00 in0.0 mm 0.00 in0.0 mm
02:40 PM 12.8°F-10.7°C -3.6°F-19.8°C 47% 3.5 mph W5.6 kmh W 2.3 mph3.7 kmh 30.93 in1047.4 mb - 0.00 in0.0 mm 0.00 in0.0 mm
02:50 PM 12.9°F-10.6°C -4.0°F-20.0°C 46% 2.3 mph WSW3.7 kmh WSW 2.3 mph3.7 kmh 30.94 in1047.7 mb - 0.00 in0.0 mm 0.00 in0.0 mm
03:00 PM 13.2°F-10.4°C -2.9°F-19.4°C 48% 1.2 mph SW1.9 kmh SW 1.2 mph1.9 kmh 30.95 in1048.1 mb - 0.00 in0.0 mm 0.00 in0.0 mm
03:10 PM 13.3°F-10.4°C -3.2°F-19.6°C 47% 2.3 mph NW3.7 kmh NW 2.3 mph3.7 kmh 30.95 in1048.1 mb - 0.00 in0.0 mm 0.00 in0.0 mm
03:20 PM 13.5°F-10.3°C -2.1°F-18.9°C 49% Calm Calm 2.3 mph3.7 kmh 30.92 in1047.1 mb - 0.00 in0.0 mm 0.00 in0.0 mm
03:30 PM 13.3°F-10.4°C -2.3°F-19.1°C 49% 2.3 mph SW3.7 kmh SW 2.3 mph3.7 kmh 30.93 in1047.4 mb - 0.00 in0.0 mm 0.00 in0.0 mm
03:40 PM 13.2°F-10.4°C -2.9°F-19.4°C 48% 1.2 mph WNW1.9 kmh WNW 1.2 mph1.9 kmh 30.95 in1048.1 mb - 0.00 in0.0 mm 0.00 in0.0 mm
03:50 PM 12.9°F-10.6°C -2.3°F-19.1°C 50% 2.3 mph SW3.7 kmh SW 2.3 mph3.7 kmh 30.95 in1048.1 mb - 0.00 in0.0 mm 0.00 in0.0 mm
04:00 PM 12.4°F-10.9°C -2.3°F-19.1°C 51% 1.2 mph WSW1.9 kmh WSW 2.3 mph3.7 kmh 30.97 in1048.8 mb - 0.00 in0.0 mm 0.00 in0.0 mm
04:10 PM 12.2°F-11.0°C -2.5°F-19.2°C 51% 1.2 mph W1.9 kmh W -- 30.98 in1049.1 mb - 0.00 in0.0 mm 0.00 in0.0 mm
04:20 PM 11.5°F-11.4°C -2.3°F-19.1°C 53% 2.3 mph SSW3.7 kmh SSW 1.2 mph1.9 kmh 30.99 in1049.4 mb - 0.00 in0.0 mm 0.00 in0.0 mm
04:30 PM 10.9°F-11.7°C -1.8°F-18.8°C 56% 1.2 mph SSW1.9 kmh SSW 1.2 mph1.9 kmh 31.01 in1050.1 mb - 0.00 in0.0 mm 0.00 in0.0 mm
04:40 PM 9.6°F-12.4°C -1.5°F-18.6°C 60% Calm Calm -- 31.03 in1050.8 mb - 0.00 in0.0 mm 0.00 in0.0 mm
04:50 PM 8.3°F-13.2°C -1.1°F-18.4°C 65% Calm Calm -- 31.04 in1051.1 mb - 0.00 in0.0 mm 0.00 in0.0 mm
05:00 PM 7.5°F-13.6°C -1.2°F-18.4°C 67% Calm Calm -- 31.05 in1051.5 mb - 0.00 in0.0 mm 0.00 in0.0 mm
05:10 PM 6.6°F-14.1°C -1.4°F-18.6°C 69% Calm Calm -- 31.06 in1051.8 mb - 0.00 in0.0 mm 0.00 in0.0 mm
05:20 PM 6.2°F-14.3°C -1.2°F-18.4°C 71% Calm Calm -- 31.07 in1052.2 mb - 0.00 in0.0 mm 0.00 in0.0 mm
05:30 PM 6.4°F-14.2°C -1.3°F-18.5°C 70% Calm Calm 1.2 mph1.9 kmh 31.08 in1052.5 mb - 0.00 in0.0 mm 0.00 in0.0 mm
05:40 PM 6.6°F-14.1°C -0.2°F-17.9°C 73% Calm Calm 1.2 mph1.9 kmh 31.09 in1052.8 mb - 0.00 in0.0 mm 0.00 in0.0 mm
05:50 PM 6.8°F-14.0°C 0.0°F-17.8°C 73% Calm Calm -- 31.10 in1053.2 mb - 0.00 in0.0 mm 0.00 in0.0 mm
06:00 PM 7.4°F-13.7°C 0.6°F-17.4°C 73% Calm Calm -- 31.11 in1053.5 mb - 0.00 in0.0 mm 0.00 in0.0 mm
06:10 PM 8.3°F-13.2°C 0.5°F-17.5°C 70% 1.2 mph SSE1.9 kmh SSE 1.2 mph1.9 kmh 31.12 in1053.8 mb - 0.00 in0.0 mm 0.00 in0.0 mm
06:20 PM 8.9°F-12.8°C 0.5°F-17.5°C 68% 1.2 mph SSW1.9 kmh SSW 1.2 mph1.9 kmh 31.14 in1054.5 mb - 0.00 in0.0 mm 0.00 in0.0 mm
06:30 PM 9.8°F-12.3°C 0.4°F-17.6°C 65% 1.2 mph S1.9 kmh S 1.2 mph1.9 kmh 31.15 in1054.9 mb - 0.00 in0.0 mm 0.00 in0.0 mm
06:40 PM 10.2°F-12.1°C 0.4°F-17.6°C 64% Calm Calm -- 31.16 in1055.2 mb - 0.00 in0.0 mm 0.00 in0.0 mm
06:50 PM 9.9°F-12.3°C 0.5°F-17.5°C 65% 1.2 mph S1.9 kmh S 5.8 mph9.3 kmh 31.17 in1055.5 mb - 0.00 in0.0 mm 0.00 in0.0 mm
07:00 PM 10.2°F-12.1°C 1.4°F-17.0°C 67% 1.2 mph SW1.9 kmh SW 1.2 mph1.9 kmh 31.18 in1055.9 mb - 0.00 in0.0 mm 0.00 in0.0 mm
07:10 PM 10.2°F-12.1°C 0.8°F-17.3°C 65% Calm Calm 1.2 mph1.9 kmh 31.19 in1056.2 mb - 0.00 in0.0 mm 0.00 in0.0 mm
07:20 PM 10.3°F-12.1°C 0.2°F-17.7°C 63% 3.5 mph SSW5.6 kmh SSW 3.5 mph5.6 kmh 31.20 in1056.6 mb - 0.00 in0.0 mm 0.00 in0.0 mm
07:30 PM 10.3°F-12.1°C 0.5°F-17.5°C 64% 2.3 mph SSE3.7 kmh SSE 1.2 mph1.9 kmh 31.19 in1056.2 mb - 0.00 in0.0 mm 0.00 in0.0 mm
07:40 PM 10.2°F-12.1°C 0.4°F-17.6°C 64% 2.3 mph SSW3.7 kmh SSW 1.2 mph1.9 kmh 31.20 in1056.6 mb - 0.00 in0.0 mm 0.00 in0.0 mm
07:50 PM 10.2°F-12.1°C 0.4°F-17.6°C 64% 1.2 mph WSW1.9 kmh WSW -- 31.22 in1057.2 mb - 0.00 in0.0 mm 0.00 in0.0 mm
08:00 PM 10.2°F-12.1°C 1.1°F-17.2°C 66% 2.3 mph SSE3.7 kmh SSE 2.3 mph3.7 kmh 31.22 in1057.2 mb - 0.00 in0.0 mm 0.00 in0.0 mm
08:10 PM 10.2°F-12.1°C 1.1°F-17.2°C 66% 1.2 mph SSW1.9 kmh SSW 1.2 mph1.9 kmh 31.23 in1057.6 mb - 0.00 in0.0 mm 0.00 in0.0 mm
08:20 PM 9.9°F-12.3°C 0.8°F-17.3°C 66% 2.3 mph S3.7 kmh S 2.3 mph3.7 kmh 31.24 in1057.9 mb - 0.00 in0.0 mm 0.00 in0.0 mm
08:30 PM 9.7°F-12.4°C 1.6°F-16.9°C 69% Calm Calm -- 31.24 in1057.9 mb - 0.00 in0.0 mm 0.00 in0.0 mm
08:40 PM 9.5°F-12.5°C 1.1°F-17.2°C 68% 5.8 mph SSE9.3 kmh SSE 5.8 mph9.3 kmh 31.24 in1057.9 mb - 0.00 in0.0 mm 0.00 in0.0 mm
08:50 PM 9.5°F-12.5°C 1.1°F-17.2°C 68% 1.2 mph ESE1.9 kmh ESE 1.2 mph1.9 kmh 31.25 in1058.2 mb - 0.00 in0.0 mm 0.00 in0.0 mm
09:00 PM 9.4°F-12.6°C 1.6°F-16.9°C 70% 1.2 mph WSW1.9 kmh WSW 1.2 mph1.9 kmh 31.25 in1058.2 mb - 0.00 in0.0 mm 0.00 in0.0 mm
09:10 PM 9.8°F-12.3°C 2.6°F-16.3°C 72% 3.5 mph SW5.6 kmh SW 2.3 mph3.7 kmh 31.26 in1058.6 mb - 0.00 in0.0 mm 0.00 in0.0 mm
09:20 PM 9.7°F-12.4°C 2.8°F-16.2°C 73% 1.2 mph SE1.9 kmh SE 2.3 mph3.7 kmh 31.27 in1058.9 mb - 0.00 in0.0 mm 0.00 in0.0 mm
09:30 PM 9.6°F-12.4°C 4.1°F-15.5°C 78% 1.2 mph SW1.9 kmh SW 1.2 mph1.9 kmh 31.27 in1058.9 mb - 0.00 in0.0 mm 0.00 in0.0 mm
09:40 PM 9.4°F-12.6°C 5.5°F-14.7°C 84% 3.5 mph S5.6 kmh S 2.3 mph3.7 kmh 31.27 in1058.9 mb - 0.00 in0.0 mm 0.00 in0.0 mm
09:50 PM 9.7°F-12.4°C 6.9°F-13.9°C 88% 4.6 mph WSW7.4 kmh WSW 3.5 mph5.6 kmh 31.27 in1058.9 mb - 0.00 in0.0 mm 0.00 in0.0 mm
10:00 PM 10.1°F-12.2°C 7.8°F-13.4°C 90% 1.2 mph SSW1.9 kmh SSW 1.2 mph1.9 kmh 31.27 in1058.9 mb - 0.00 in0.0 mm 0.00 in0.0 mm
10:10 PM 10.7°F-11.8°C 8.8°F-12.9°C 92% 1.2 mph S1.9 kmh S 1.2 mph1.9 kmh 31.26 in1058.6 mb - 0.00 in0.0 mm 0.00 in0.0 mm
10:20 PM 11.4°F-11.4°C 9.8°F-12.3°C 93% 2.3 mph WSW3.7 kmh WSW 2.3 mph3.7 kmh 31.27 in1058.9 mb - 0.00 in0.0 mm 0.00 in0.0 mm
10:30 PM 12.3°F-10.9°C 10.6°F-11.9°C 93% 3.5 mph S5.6 kmh S 3.5 mph5.6 kmh 31.27 in1058.9 mb - 0.00 in0.0 mm 0.00 in0.0 mm
10:40 PM 12.9°F-10.6°C 11.2°F-11.6°C 93% 3.5 mph SW5.6 kmh SW 2.3 mph3.7 kmh 31.27 in1058.9 mb - 0.00 in0.0 mm 0.00 in0.0 mm
10:50 PM 13.5°F-10.3°C 11.8°F-11.2°C 93% 3.5 mph SW5.6 kmh SW 2.3 mph3.7 kmh 31.28 in1059.3 mb - 0.00 in0.0 mm 0.00 in0.0 mm
11:00 PM 14.1°F-9.9°C 12.4°F-10.9°C 93% 3.5 mph WSW5.6 kmh WSW 2.3 mph3.7 kmh 31.28 in1059.3 mb - 0.00 in0.0 mm 0.00 in0.0 mm
11:10 PM 14.7°F-9.6°C 13.0°F-10.6°C 93% 2.3 mph WSW3.7 kmh WSW 2.3 mph3.7 kmh 31.28 in1059.3 mb - 0.00 in0.0 mm 0.00 in0.0 mm
11:20 PM 15.3°F-9.3°C 13.4°F-10.3°C 92% 3.5 mph SW5.6 kmh SW 3.5 mph5.6 kmh 31.28 in1059.3 mb - 0.00 in0.0 mm 0.00 in0.0 mm
11:30 PM 15.9°F-8.9°C 12.9°F-10.6°C 88% 2.3 mph SW3.7 kmh SW 2.3 mph3.7 kmh 31.27 in1058.9 mb - 0.00 in0.0 mm 0.00 in0.0 mm
11:40 PM 16.4°F-8.7°C 12.9°F-10.6°C 86% 6.9 mph SE11.1 kmh SE 5.8 mph9.3 kmh 31.27 in1058.9 mb - 0.00 in0.0 mm 0.00 in0.0 mm
11:50 PM 16.9°F-8.4°C 12.9°F-10.6°C 84% 2.3 mph SE3.7 kmh SE 2.3 mph3.7 kmh 31.27 in1058.9 mb - 0.00 in0.0 mm 0.00 in0.0 mm